Time;durP1;ratioP1;P1;durP2;ratioP2;P2;SDS_P1;SDS_P2;PMS_P1;PMS_P2;Temp;Humidity;BMP_temperature;BMP_pressure;BME280_temperature;BME280_humidity;BME280_pressure;Samples;Min_cycle;Max_cycle;Signal;HPM_P1;HPM_P2
2022/05/28 00:01:15;;;;;;;7.67;2.57;;;8.50;99.90;;;;;;5051383;28;20399;-84
2022/05/28 00:03:43;;;;;;;8.73;2.63;;;8.60;99.90;;;;;;5033193;28;20383;-82
2022/05/28 00:06:17;;;;;;;6.80;2.50;;;8.50;99.90;;;;;;5033419;28;20456;-84
2022/05/28 00:08:43;;;;;;;7.95;2.80;;;8.50;99.90;;;;;;5051094;28;20384;-84
2022/05/28 00:11:20;;;;;;;7.72;2.92;;;8.50;99.90;;;;;;5032174;28;20422;-81
2022/05/28 00:13:46;;;;;;;10.60;3.00;;;8.50;99.90;;;;;;5034349;28;20431;-82
2022/05/28 00:16:13;;;;;;;10.07;3.15;;;8.50;99.90;;;;;;5033947;28;20395;-81
2022/05/28 00:19:00;;;;;;;8.25;2.92;;;8.50;99.90;;;;;;5050794;28;20451;-84
2022/05/28 00:21:27;;;;;;;12.32;3.30;;;8.40;99.90;;;;;;5049440;28;20454;-81
2022/05/28 00:23:52;;;;;;;9.88;2.80;;;8.40;99.90;;;;;;5035834;28;20384;-82
2022/05/28 00:26:18;;;;;;;9.17;3.27;;;8.50;99.90;;;;;;5051648;28;20461;-82
2022/05/28 00:28:44;;;;;;;12.32;3.53;;;8.50;99.90;;;;;;5055280;28;20375;-83
2022/05/28 00:31:10;;;;;;;11.82;3.55;;;8.50;99.90;;;;;;5055680;28;20360;-85
2022/05/28 00:33:41;;;;;;;12.23;3.30;;;8.50;99.90;;;;;;5055257;28;20899;-84
2022/05/28 00:36:09;;;;;;;8.30;3.00;;;8.50;99.90;;;;;;5036640;28;20395;-84
2022/05/28 00:38:35;;;;;;;11.35;3.30;;;8.50;99.90;;;;;;5038352;28;20375;-83
2022/05/28 00:41:02;;;;;;;10.52;3.58;;;8.50;99.90;;;;;;5038770;28;20399;-84
2022/05/28 00:43:42;;;;;;;10.30;3.35;;;8.60;99.90;;;;;;5056574;28;20962;-84
2022/05/28 00:46:12;;;;;;;11.48;3.40;;;8.60;99.90;;;;;;5039619;28;20390;-83
2022/05/28 00:48:49;;;;;;;13.40;3.15;;;8.60;99.90;;;;;;5036608;28;20896;-85
2022/05/28 00:51:30;;;;;;;11.27;3.22;;;8.60;99.90;;;;;;5037989;28;20462;-83
2022/05/28 00:53:59;;;;;;;9.30;3.08;;;8.60;99.90;;;;;;5038408;28;20380;-84
2022/05/28 00:56:37;;;;;;;11.93;3.72;;;8.50;99.90;;;;;;5036438;28;20403;-85
2022/05/28 00:59:03;;;;;;;9.00;2.85;;;8.50;99.90;;;;;;5036820;28;20392;-84
2022/05/28 01:01:35;;;;;;;10.00;3.38;;;8.50;99.90;;;;;;5038156;28;20410;-84
2022/05/28 01:04:30;;;;;;;11.60;3.60;;;8.50;99.90;;;;;;5038339;28;20821;-85
2022/05/28 01:07:13;;;;;;;11.52;3.00;;;8.60;99.90;;;;;;5025484;28;20388;-84
2022/05/28 01:09:57;;;;;;;8.32;3.13;;;8.60;99.90;;;;;;5038996;28;20398;-85
2022/05/28 01:12:41;;;;;;;10.35;3.65;;;8.70;99.90;;;;;;5055714;28;20387;-83
2022/05/28 01:15:14;;;;;;;7.43;3.03;;;8.60;99.90;;;;;;5055369;28;20392;-84
2022/05/28 01:17:50;;;;;;;9.82;3.10;;;8.60;99.90;;;;;;5041763;28;20398;-84
2022/05/28 01:20:46;;;;;;;11.98;3.47;;;8.60;99.90;;;;;;5054117;28;20499;-84
2022/05/28 01:23:33;;;;;;;11.07;3.15;;;8.50;99.90;;;;;;5055588;28;20467;-84
2022/05/28 01:26:06;;;;;;;8.07;3.03;;;8.60;99.90;;;;;;5035695;28;20896;-85
2022/05/28 01:29:10;;;;;;;9.98;3.03;;;8.50;99.90;;;;;;5019469;28;20405;-83
2022/05/28 01:31:37;;;;;;;11.63;3.30;;;8.40;99.90;;;;;;5042610;28;20395;-84
2022/05/28 01:34:05;;;;;;;11.80;3.00;;;8.50;99.90;;;;;;5053954;28;20463;-84
2022/05/28 01:36:33;;;;;;;11.00;3.13;;;8.40;99.90;;;;;;5041069;28;20535;-83
2022/05/28 01:39:00;;;;;;;15.18;3.63;;;8.40;99.90;;;;;;5024430;28;20423;-82
2022/05/28 01:41:31;;;;;;;11.35;3.65;;;8.40;99.90;;;;;;5035721;28;20400;-83
2022/05/28 01:43:58;;;;;;;9.88;3.38;;;8.40;99.90;;;;;;5036914;28;20419;-85
2022/05/28 01:46:36;;;;;;;13.68;3.72;;;8.40;99.90;;;;;;5036909;28;20746;-85
2022/05/28 01:49:02;;;;;;;13.18;3.53;;;8.40;99.90;;;;;;5040543;28;21004;-85
2022/05/28 01:51:33;;;;;;;11.68;3.30;;;8.40;99.90;;;;;;5036050;28;20453;-84
2022/05/28 01:54:11;;;;;;;16.65;4.18;;;8.30;99.90;;;;;;5058066;28;20372;-82
2022/05/28 01:56:43;;;;;;;12.30;3.53;;;8.30;99.90;;;;;;5031086;28;20442;-83
2022/05/28 01:59:13;;;;;;;10.38;3.72;;;8.30;99.90;;;;;;5040675;28;20474;-83
2022/05/28 02:01:41;;;;;;;10.75;3.60;;;8.30;99.90;;;;;;5034638;28;20466;-83
2022/05/28 02:04:07;;;;;;;14.63;4.18;;;8.30;99.90;;;;;;5054373;28;20372;-83
2022/05/28 02:06:37;;;;;;;10.37;3.50;;;8.30;99.90;;;;;;5037917;28;20475;-81
2022/05/28 02:09:06;;;;;;;10.43;3.67;;;8.30;99.90;;;;;;5037977;28;20399;-83
2022/05/28 02:11:51;;;;;;;11.57;3.58;;;8.40;99.90;;;;;;5037024;28;20434;-83
2022/05/28 02:14:25;;;;;;;11.98;3.83;;;8.30;99.90;;;;;;5056434;28;20439;-83
2022/05/28 02:17:17;;;;;;;10.18;3.60;;;8.30;99.90;;;;;;5059183;28;20391;-83
2022/05/28 02:19:57;;;;;;;13.43;3.92;;;8.30;99.90;;;;;;5038890;28;20376;-83
2022/05/28 02:22:44;;;;;;;10.93;3.30;;;8.20;99.90;;;;;;5037350;28;20383;-83
2022/05/28 02:25:15;;;;;;;15.23;4.32;;;8.20;99.90;;;;;;5040240;28;20900;-85
2022/05/28 02:27:48;;;;;;;12.40;4.05;;;8.20;99.90;;;;;;5041005;28;20393;-84
2022/05/28 02:30:14;;;;;;;13.68;3.90;;;8.20;99.90;;;;;;5062282;28;20402;-83
2022/05/28 02:32:40;;;;;;;10.67;3.80;;;8.20;99.90;;;;;;5056104;28;20449;-82
2022/05/28 02:35:06;;;;;;;9.27;3.57;;;8.20;99.90;;;;;;5054900;28;20532;-84
2022/05/28 02:37:32;;;;;;;14.25;3.88;;;8.20;99.90;;;;;;5043431;28;20395;-84
2022/05/28 02:39:58;;;;;;;12.30;3.70;;;8.10;99.90;;;;;;5037491;28;20411;-82
2022/05/28 02:42:31;;;;;;;10.20;3.42;;;8.10;99.90;;;;;;5036770;28;20406;-83
2022/05/28 02:44:57;;;;;;;15.02;4.03;;;8.10;99.90;;;;;;5037997;28;20431;-83
2022/05/28 02:47:22;;;;;;;10.20;3.43;;;8.20;99.90;;;;;;5054397;28;20908;-85
2022/05/28 02:50:10;;;;;;;14.60;3.30;;;8.20;99.90;;;;;;5038003;28;20387;-84
2022/05/28 02:52:36;;;;;;;12.15;3.35;;;8.20;99.90;;;;;;5058690;28;20460;-83
2022/05/28 02:55:03;;;;;;;13.60;3.47;;;8.20;99.90;;;;;;5038792;28;20455;-82
2022/05/28 02:58:01;;;;;;;10.00;3.60;;;8.30;99.90;;;;;;5059371;28;20387;-83
2022/05/28 03:00:34;;;;;;;7.85;2.80;;;8.30;99.90;;;;;;4984721;28;20414;-84
2022/05/28 03:03:05;;;;;;;10.27;3.17;;;8.40;99.90;;;;;;5040951;28;20391;-83
2022/05/28 03:05:31;;;;;;;12.00;3.65;;;8.50;99.90;;;;;;5039491;28;20380;-83
2022/05/28 03:07:56;;;;;;;13.27;3.75;;;8.50;99.90;;;;;;5041773;28;20422;-83
2022/05/28 03:10:22;;;;;;;9.47;3.40;;;8.50;99.90;;;;;;5038172;28;20492;-84
2022/05/28 03:12:47;;;;;;;10.27;3.23;;;8.50;99.90;;;;;;5054677;28;20853;-83
2022/05/28 03:15:13;;;;;;;9.77;2.90;;;8.60;99.90;;;;;;5055875;28;20428;-83
2022/05/28 03:17:51;;;;;;;12.23;3.70;;;8.50;99.90;;;;;;5040612;28;20421;-83
2022/05/28 03:20:20;;;;;;;7.65;3.10;;;8.60;99.90;;;;;;5039447;28;20392;-83
2022/05/28 03:22:52;;;;;;;9.25;2.88;;;8.60;99.90;;;;;;5037726;28;20376;-84
2022/05/28 03:25:18;;;;;;;11.32;3.40;;;8.80;99.90;;;;;;5058463;28;20379;-84
2022/05/28 03:27:43;;;;;;;10.75;3.25;;;9.00;99.90;;;;;;5037235;28;20428;-84
2022/05/28 03:30:14;;;;;;;8.57;3.30;;;9.00;99.90;;;;;;5039106;28;20375;-85
2022/05/28 03:32:40;;;;;;;9.57;3.00;;;9.10;99.90;;;;;;5055378;28;20411;-85
2022/05/28 03:35:07;;;;;;;12.53;3.20;;;9.20;99.90;;;;;;5040344;28;20387;-84
2022/05/28 03:37:32;;;;;;;11.35;3.88;;;9.20;99.90;;;;;;5056604;28;20849;-83
2022/05/28 03:40:02;;;;;;;8.07;2.83;;;9.20;99.90;;;;;;5036572;28;20467;-82
2022/05/28 03:42:28;;;;;;;12.30;2.95;;;9.30;99.90;;;;;;5037498;28;20404;-84
2022/05/28 03:45:26;;;;;;;10.20;3.53;;;9.30;99.90;;;;;;5036723;28;20789;-86
2022/05/28 03:48:02;;;;;;;12.45;2.97;;;9.40;99.90;;;;;;5032002;28;20396;-84
2022/05/28 03:50:28;;;;;;;10.85;3.22;;;9.40;99.90;;;;;;5039043;28;20396;-83
2022/05/28 03:53:17;;;;;;;9.82;3.13;;;9.40;99.90;;;;;;5039084;28;20388;-83
2022/05/28 03:55:43;;;;;;;10.48;3.15;;;9.40;99.90;;;;;;5037213;28;20381;-84
2022/05/28 03:58:09;;;;;;;8.40;2.72;;;9.50;99.90;;;;;;5056149;28;20399;-85
2022/05/28 04:00:35;;;;;;;7.90;3.00;;;9.60;99.90;;;;;;5056861;28;20949;-83
2022/05/28 04:03:10;;;;;;;6.35;2.60;;;9.70;99.90;;;;;;5037544;28;20375;-82
2022/05/28 04:05:38;;;;;;;14.30;3.28;;;9.70;99.90;;;;;;5057452;28;20371;-85
2022/05/28 04:08:04;;;;;;;12.52;3.80;;;9.70;99.90;;;;;;5050944;28;20864;-84
2022/05/28 04:10:29;;;;;;;11.45;3.22;;;9.50;99.90;;;;;;5033404;28;20376;-86
2022/05/28 04:13:07;;;;;;;11.17;3.40;;;9.50;99.90;;;;;;5034038;28;20446;-85
2022/05/28 04:15:35;;;;;;;12.98;3.80;;;9.50;99.90;;;;;;5040225;28;20383;-83
2022/05/28 04:18:01;;;;;;;6.53;2.20;;;9.30;99.90;;;;;;5052356;28;20806;-86
2022/05/28 04:20:27;;;;;;;8.17;2.60;;;8.90;99.90;;;;;;5033802;28;20487;-85
2022/05/28 04:22:52;;;;;;;9.63;3.50;;;8.60;99.90;;;;;;5033200;28;20881;-86
2022/05/28 04:25:18;;;;;;;10.05;3.40;;;8.60;99.90;;;;;;5052121;28;20400;-90
2022/05/28 04:27:44;;;;;;;9.95;3.67;;;8.60;99.90;;;;;;5035234;28;20897;-87
2022/05/28 04:30:10;;;;;;;10.13;3.70;;;8.70;99.90;;;;;;5034466;28;20749;-87
2022/05/28 04:32:36;;;;;;;11.90;3.55;;;8.90;99.90;;;;;;5033445;28;20491;-86
2022/05/28 04:35:03;;;;;;;9.27;2.70;;;9.10;99.90;;;;;;5038084;28;20885;-86
2022/05/28 04:37:31;;;;;;;8.65;2.70;;;9.20;99.90;;;;;;5034095;28;20882;-85
2022/05/28 04:39:56;;;;;;;6.90;2.50;;;9.40;99.90;;;;;;5050998;28;20453;-87
2022/05/28 04:42:22;;;;;;;7.95;2.50;;;9.40;99.90;;;;;;5051514;28;20526;-85
2022/05/28 04:44:48;;;;;;;6.38;2.03;;;9.50;99.90;;;;;;5033439;28;20797;-86
2022/05/28 04:47:13;;;;;;;6.72;2.17;;;9.80;99.90;;;;;;5033098;28;20466;-86
2022/05/28 04:49:39;;;;;;;6.23;2.10;;;10.00;99.90;;;;;;5033313;28;20726;-87
2022/05/28 04:52:05;;;;;;;7.72;1.90;;;10.10;99.90;;;;;;5033286;28;20522;-86
2022/05/28 04:54:31;;;;;;;6.15;2.03;;;10.10;99.90;;;;;;5036189;28;20399;-85
2022/05/28 04:56:56;;;;;;;7.87;2.17;;;10.40;99.90;;;;;;5032305;28;20481;-86
2022/05/28 04:59:22;;;;;;;5.10;2.10;;;10.60;99.90;;;;;;5050971;28;20805;-86
2022/05/28 05:01:47;;;;;;;4.72;1.77;;;10.40;99.90;;;;;;5031114;28;20414;-84
2022/05/28 05:04:13;;;;;;;8.17;2.20;;;10.20;99.90;;;;;;5034486;28;20567;-89
2022/05/28 05:06:38;;;;;;;6.78;2.05;;;10.10;99.90;;;;;;5032364;28;21035;-85
2022/05/28 05:09:04;;;;;;;5.77;2.00;;;10.00;99.90;;;;;;5031864;28;20380;-86
2022/05/28 05:11:33;;;;;;;7.20;2.17;;;10.00;99.90;;;;;;5033684;28;20874;-85
2022/05/28 05:13:59;;;;;;;6.43;2.00;;;10.00;99.90;;;;;;5036362;28;20392;-85
2022/05/28 05:16:24;;;;;;;6.90;2.20;;;10.10;99.90;;;;;;5035165;28;20392;-86
2022/05/28 05:18:50;;;;;;;5.93;2.00;;;10.10;99.90;;;;;;5035870;28;20793;-84
2022/05/28 05:21:16;;;;;;;5.72;2.10;;;10.00;99.90;;;;;;5037655;28;20407;-86
2022/05/28 05:23:43;;;;;;;6.35;1.92;;;10.30;99.90;;;;;;5054097;28;20398;-86
2022/05/28 05:26:14;;;;;;;4.85;1.92;;;10.40;99.90;;;;;;5052972;28;20696;-83
2022/05/28 05:28:40;;;;;;;7.85;2.20;;;10.40;99.90;;;;;;5035565;28;20392;-85
2022/05/28 05:31:05;;;;;;;4.88;2.25;;;10.30;99.90;;;;;;5052979;28;20865;-82
2022/05/28 05:33:31;;;;;;;5.53;2.30;;;10.20;99.90;;;;;;5055969;28;20383;-88
2022/05/28 05:36:00;;;;;;;4.90;2.30;;;10.40;99.90;;;;;;5053849;28;20386;-85
2022/05/28 05:38:26;;;;;;;6.82;2.38;;;10.60;99.90;;;;;;5035347;28;20745;-85
2022/05/28 05:41:05;;;;;;;4.22;2.08;;;10.40;99.90;;;;;;5034401;28;20407;-84
2022/05/28 05:43:32;;;;;;;6.20;2.30;;;10.50;99.90;;;;;;5036512;28;20400;-84
2022/05/28 05:46:00;;;;;;;5.95;2.10;;;10.70;99.90;;;;;;5053389;28;20741;-88
2022/05/28 05:48:29;;;;;;;6.22;2.50;;;10.80;99.90;;;;;;5035662;28;20384;-86
2022/05/28 05:50:55;;;;;;;6.72;2.20;;;10.90;99.90;;;;;;5036365;28;20391;-86
2022/05/28 05:53:21;;;;;;;5.93;1.80;;;10.90;99.90;;;;;;5053087;28;20437;-82
2022/05/28 05:55:46;;;;;;;7.53;2.22;;;10.90;99.90;;;;;;5038098;28;20750;-84
2022/05/28 05:58:18;;;;;;;4.95;1.85;;;10.90;99.90;;;;;;5037746;28;20391;-85
2022/05/28 06:00:44;;;;;;;6.68;2.40;;;11.00;99.90;;;;;;5030655;28;20459;-85
2022/05/28 06:03:16;;;;;;;5.95;2.10;;;11.00;99.90;;;;;;5035395;28;20401;-83
2022/05/28 06:05:42;;;;;;;7.47;2.67;;;11.00;99.90;;;;;;5035762;28;20550;-87
2022/05/28 06:08:07;;;;;;;4.43;1.83;;;10.90;99.90;;;;;;5056636;28;20387;-85
2022/05/28 06:10:39;;;;;;;8.23;2.35;;;10.80;99.90;;;;;;5054577;28;20376;-85
2022/05/28 06:13:05;;;;;;;6.35;2.10;;;10.70;99.90;;;;;;5034333;28;20883;-87
2022/05/28 06:15:31;;;;;;;9.17;2.30;;;10.80;99.90;;;;;;5035870;28;20522;-85
2022/05/28 06:17:56;;;;;;;5.65;2.28;;;11.30;99.90;;;;;;5034510;28;20446;-85
2022/05/28 06:20:22;;;;;;;7.90;2.33;;;11.50;99.90;;;;;;5056790;28;20582;-86
2022/05/28 06:22:47;;;;;;;6.43;1.80;;;11.60;99.90;;;;;;5035096;28;20410;-85
2022/05/28 06:25:13;;;;;;;4.72;2.20;;;11.90;99.90;;;;;;5035465;28;20411;-83
2022/05/28 06:27:39;;;;;;;6.90;2.30;;;11.90;99.90;;;;;;5038290;28;20403;-84
2022/05/28 06:30:05;;;;;;;6.72;2.28;;;11.70;99.90;;;;;;5041842;28;20784;-83
2022/05/28 06:32:31;;;;;;;9.73;2.50;;;11.60;99.90;;;;;;5025668;28;20404;-83
2022/05/28 06:34:57;;;;;;;6.00;2.40;;;11.60;99.90;;;;;;5062326;28;20384;-82
2022/05/28 06:37:22;;;;;;;7.97;2.38;;;11.80;99.90;;;;;;5060409;28;20379;-82
2022/05/28 06:40:10;;;;;;;9.20;2.73;;;11.70;99.90;;;;;;5044710;28;20415;-84
2022/05/28 06:42:36;;;;;;;9.50;2.80;;;11.60;99.90;;;;;;5025157;28;20764;-85
2022/05/28 06:45:13;;;;;;;8.13;2.47;;;11.60;99.90;;;;;;5023979;28;20414;-82
2022/05/28 06:47:45;;;;;;;7.45;2.90;;;11.60;99.90;;;;;;5041064;28;20376;-84
2022/05/28 06:52:57;;;;;;;6.35;2.25;;;12.10;99.90;;;;;;5057147;28;20419;-83
2022/05/28 06:55:23;;;;;;;5.38;2.20;;;13.00;99.90;;;;;;5036660;28;20384;-84
2022/05/28 06:57:49;;;;;;;6.80;2.38;;;13.40;99.90;;;;;;5054775;28;20920;-83
2022/05/28 07:00:15;;;;;;;5.25;2.15;;;13.50;99.90;;;;;;5053201;28;20908;-86
2022/05/28 07:02:44;;;;;;;5.78;1.90;;;13.40;99.90;;;;;;5058991;28;20530;-85
2022/05/28 07:05:15;;;;;;;6.03;2.33;;;13.20;99.90;;;;;;5037727;28;20404;-84
2022/05/28 07:07:41;;;;;;;5.57;2.00;;;12.80;99.90;;;;;;5038194;28;20380;-82
2022/05/28 07:12:57;;;;;;;6.10;1.90;;;12.30;99.90;;;;;;5040546;28;20909;-82
2022/05/28 07:15:23;;;;;;;7.53;2.37;;;12.10;99.90;;;;;;5038784;28;20411;-83
2022/05/28 07:17:51;;;;;;;4.45;2.20;;;12.20;99.90;;;;;;5039634;28;20402;-84
2022/05/28 07:20:17;;;;;;;7.57;2.55;;;12.00;99.90;;;;;;5038143;28;20403;-84
2022/05/28 07:22:43;;;;;;;7.40;2.45;;;12.00;99.90;;;;;;5052574;28;20380;-83
2022/05/28 07:25:10;;;;;;;9.20;2.38;;;12.00;99.90;;;;;;5039362;28;20375;-87
2022/05/28 07:27:35;;;;;;;7.17;2.30;;;12.20;99.90;;;;;;5054915;28;20384;-84
2022/05/28 07:30:04;;;;;;;7.23;2.37;;;12.40;99.90;;;;;;5037071;28;20892;-85
2022/05/28 07:32:30;;;;;;;8.27;2.35;;;12.80;99.90;;;;;;5034566;28;20384;-85
2022/05/28 07:34:59;;;;;;;8.43;2.35;;;13.10;99.90;;;;;;5053062;28;20391;-86
2022/05/28 07:37:27;;;;;;;7.80;2.42;;;13.20;99.90;;;;;;5036275;28;20380;-85
2022/05/28 07:39:53;;;;;;;9.07;2.70;;;13.10;99.90;;;;;;5034614;28;20474;-87
2022/05/28 07:42:18;;;;;;;7.93;2.53;;;13.10;99.90;;;;;;5053694;28;20471;-84
2022/05/28 07:44:44;;;;;;;9.60;2.72;;;13.00;99.90;;;;;;5038311;28;20384;-85
2022/05/28 07:47:10;;;;;;;10.00;3.43;;;13.00;99.90;;;;;;5037721;28;20376;-85
2022/05/28 07:49:39;;;;;;;7.13;2.50;;;13.40;99.90;;;;;;5039886;28;20480;-85
2022/05/28 07:52:05;;;;;;;6.50;2.35;;;13.70;99.90;;;;;;5024569;28;20384;-85
2022/05/28 07:54:31;;;;;;;7.57;2.60;;;13.90;99.90;;;;;;5036802;28;20443;-84
2022/05/28 07:56:57;;;;;;;7.28;2.22;;;14.20;99.90;;;;;;5038061;28;20735;-83
2022/05/28 07:59:23;;;;;;;6.97;2.40;;;14.20;99.90;;;;;;5042951;28;20378;-85
2022/05/28 08:01:49;;;;;;;8.07;2.67;;;14.30;99.90;;;;;;5055466;28;20411;-84
2022/05/28 08:04:16;;;;;;;8.05;2.40;;;14.30;99.90;;;;;;5035481;28;20406;-84
2022/05/28 08:06:42;;;;;;;8.27;2.70;;;14.40;99.90;;;;;;5038180;28;20384;-82
2022/05/28 08:09:10;;;;;;;8.68;2.60;;;14.90;99.90;;;;;;5036311;28;20470;-83
2022/05/28 08:11:44;;;;;;;8.38;2.60;;;15.00;99.90;;;;;;5037925;28;20461;-84
2022/05/28 08:14:10;;;;;;;6.65;2.28;;;14.80;99.90;;;;;;5021096;28;20402;-84
2022/05/28 08:16:36;;;;;;;8.32;2.65;;;14.60;99.90;;;;;;5037374;28;20438;-84
2022/05/28 08:19:02;;;;;;;7.27;2.70;;;14.80;99.90;;;;;;5035165;28;20400;-85
2022/05/28 08:24:16;;;;;;;8.80;2.80;;;15.40;99.90;;;;;;5041561;28;20426;-85
2022/05/28 08:26:41;;;;;;;9.63;2.38;;;15.40;99.90;;;;;;5035240;28;20798;-83
2022/05/28 08:29:07;;;;;;;6.13;2.67;;;15.30;99.90;;;;;;5052423;28;20392;-85
2022/05/28 08:31:36;;;;;;;11.43;2.63;;;14.90;99.90;;;;;;5053693;28;20438;-82
2022/05/28 08:34:01;;;;;;;6.00;2.60;;;14.40;99.90;;;;;;5054323;28;20404;-86
2022/05/28 08:36:27;;;;;;;7.73;2.70;;;14.00;99.90;;;;;;5034241;28;20388;-87
2022/05/28 08:38:52;;;;;;;6.00;2.10;;;14.00;99.90;;;;;;5034071;28;20785;-85
2022/05/28 08:41:31;;;;;;;8.67;2.27;;;14.50;99.90;;;;;;5030732;28;20399;-85
2022/05/28 08:44:29;;;;;;;9.57;2.33;;;15.20;99.90;;;;;;5041624;28;20403;-85
2022/05/28 08:47:15;;;;;;;6.55;2.17;;;15.50;99.90;;;;;;5044238;28;20384;-82
2022/05/28 08:49:41;;;;;;;6.25;2.05;;;16.00;99.90;;;;;;5053204;28;20897;-84
2022/05/28 08:52:15;;;;;;;8.15;2.42;;;15.70;99.90;;;;;;5037698;28;20380;-83
2022/05/28 08:55:00;;;;;;;7.10;2.58;;;15.50;99.90;;;;;;5037964;28;20928;-85
2022/05/28 08:57:30;;;;;;;7.05;2.13;;;15.20;99.90;;;;;;5039001;28;20383;-85
2022/05/28 09:00:00;;;;;;;8.30;2.40;;;15.00;99.90;;;;;;5055371;28;20376;-86
2022/05/28 09:02:53;;;;;;;6.10;2.35;;;15.00;99.90;;;;;;5060580;28;20434;-86
2022/05/28 09:05:30;;;;;;;9.02;3.10;;;15.00;99.90;;;;;;5037344;28;20948;-86
2022/05/28 09:08:00;;;;;;;7.93;2.43;;;15.00;99.90;;;;;;5035828;28;21828;-84
2022/05/28 09:10:31;;;;;;;6.63;2.35;;;15.20;99.90;;;;;;5040999;28;20750;-85
2022/05/28 09:13:08;;;;;;;7.47;2.40;;;15.20;99.90;;;;;;5044988;28;20859;-88
2022/05/28 09:15:36;;;;;;;8.98;2.63;;;14.90;99.90;;;;;;5044709;28;20389;-84
2022/05/28 09:18:02;;;;;;;8.30;2.47;;;14.70;99.90;;;;;;5047517;28;20411;-85
2022/05/28 09:20:39;;;;;;;7.70;2.40;;;14.70;99.90;;;;;;5043235;28;20502;-86
2022/05/28 09:23:05;;;;;;;6.87;2.43;;;15.20;99.90;;;;;;5045485;28;20446;-86
2022/05/28 09:25:40;;;;;;;9.30;2.40;;;;;;;;;;5062466;28;20394;-81
2022/05/28 09:28:29;;;;;;;6.25;2.50;;;13.90;99.90;;;;;;5045083;28;20429;-88
2022/05/28 09:30:55;;;;;;;8.30;2.92;;;;;;;;;;5058510;28;20390;-85
2022/05/28 09:33:29;;;;;;;6.65;2.30;;;15.40;99.90;;;;;;5066012;28;20848;-86
2022/05/28 09:36:02;;;;;;;6.50;2.22;;;15.30;99.90;;;;;;5054463;28;20435;-85
2022/05/28 09:39:05;;;;;;;6.77;2.00;;;14.80;99.90;;;;;;5056636;28;20409;-85
2022/05/28 09:41:49;;;;;;;7.80;2.38;;;13.90;99.90;;;;;;5053357;28;20466;-86
2022/05/28 09:44:40;;;;;;;5.68;2.22;;;13.50;99.90;;;;;;5051087;28;20467;-87
2022/05/28 09:47:17;;;;;;;7.78;2.65;;;13.90;99.90;;;;;;5052067;28;20391;-87
2022/05/28 09:49:54;;;;;;;7.28;2.35;;;14.80;99.90;;;;;;5036045;28;20403;-84
2022/05/28 09:52:30;;;;;;;9.88;2.60;;;14.80;99.90;;;;;;5033604;28;20407;-84
2022/05/28 09:55:17;;;;;;;9.93;3.00;;;15.00;99.90;;;;;;5040022;28;20392;-84
2022/05/28 09:57:52;;;;;;;9.80;2.88;;;15.10;99.90;;;;;;5035327;28;20743;-85
2022/05/28 10:00:21;;;;;;;7.82;2.65;;;15.10;99.90;;;;;;5057441;28;20408;-86
2022/05/28 10:05:54;;;;;;;7.25;2.65;;;15.90;99.90;;;;;;5057358;28;20399;-82
2022/05/28 10:08:19;;;;;;;9.05;2.78;;;16.00;99.90;;;;;;5053487;28;20773;-84
2022/05/28 10:11:00;;;;;;;5.73;2.40;;;16.10;99.90;;;;;;5038250;28;20387;-87
2022/05/28 10:13:28;;;;;;;5.50;2.08;;;16.30;99.90;;;;;;5020602;28;20396;-87
2022/05/28 10:16:04;;;;;;;13.65;2.72;;;16.60;99.90;;;;;;5040888;28;20380;-86
2022/05/28 10:18:58;;;;;;;7.60;2.22;;;16.80;99.90;;;;;;5040876;28;20387;-86
2022/05/28 10:21:37;;;;;;;6.85;2.38;;;17.10;99.90;;;;;;5057803;28;20590;-84
2022/05/28 10:24:16;;;;;;;9.95;2.60;;;17.50;99.90;;;;;;5035932;28;20730;-84
2022/05/28 10:26:50;;;;;;;10.60;2.90;;;17.60;99.90;;;;;;5034485;28;20399;-86
2022/05/28 10:29:24;;;;;;;10.60;3.17;;;17.20;99.90;;;;;;5037701;28;20380;-86
2022/05/28 10:31:51;;;;;;;11.17;2.60;;;16.90;99.70;;;;;;5026640;28;20397;-84
2022/05/28 10:34:31;;;;;;;9.30;2.60;;;;;;;;;;5055085;28;20390;-84
2022/05/28 10:37:19;;;;;;;11.15;3.38;;;17.40;99.90;;;;;;5039743;28;20388;-83
2022/05/28 10:39:47;;;;;;;11.27;2.67;;;17.40;96.80;;;;;;5037253;28;20530;-85
2022/05/28 10:42:14;;;;;;;9.63;2.45;;;17.00;97.60;;;;;;5055715;28;20408;-82
2022/05/28 10:44:43;;;;;;;9.75;2.75;;;16.80;99.50;;;;;;5028001;28;20398;-84
2022/05/28 10:47:31;;;;;;;6.57;2.38;;;16.60;98.60;;;;;;5037245;28;20879;-85
2022/05/28 10:50:00;;;;;;;7.90;3.10;;;;;;;;;;5035777;28;20394;-84
2022/05/28 10:52:48;;;;;;;15.50;3.25;;;17.30;98.90;;;;;;5037444;28;20432;-84
2022/05/28 10:55:36;;;;;;;11.23;2.80;;;17.10;97.80;;;;;;5060166;28;20999;-85
2022/05/28 10:58:29;;;;;;;11.18;3.03;;;16.80;98.20;;;;;;5061279;28;20397;-86
2022/05/28 11:01:01;;;;;;;7.78;2.50;;;17.00;99.90;;;;;;5041648;28;20756;-85
2022/05/28 11:04:01;;;;;;;10.97;2.50;;;17.70;99.90;;;;;;5065727;28;20387;-85
2022/05/28 11:06:32;;;;;;;5.95;2.30;;;17.90;99.30;;;;;;5060717;28;20889;-84
2022/05/28 11:09:32;;;;;;;5.70;2.30;;;18.00;99.90;;;;;;5045734;28;20388;-87
2022/05/28 11:12:16;;;;;;;10.07;2.80;;;17.90;97.30;;;;;;5063146;28;20386;-86
2022/05/28 11:15:22;;;;;;;11.00;3.00;;;18.00;98.70;;;;;;5065580;28;20397;-86
2022/05/28 11:17:57;;;;;;;10.07;2.80;;;;;;;;;;5060425;28;20445;-86
2022/05/28 11:20:43;;;;;;;7.68;2.75;;;16.70;99.90;;;;;;5045657;28;21253;-87
2022/05/28 11:23:33;;;;;;;8.85;2.72;;;16.40;99.90;;;;;;5040559;28;20399;-85
2022/05/28 11:26:02;;;;;;;7.03;2.80;;;16.00;99.90;;;;;;5064145;28;20386;-86
2022/05/28 11:28:45;;;;;;;7.10;2.42;;;15.90;99.90;;;;;;5041684;28;20430;-84
2022/05/28 11:31:34;;;;;;;6.03;2.38;;;15.80;99.90;;;;;;5019865;28;20896;-86
2022/05/28 11:34:09;;;;;;;6.57;2.40;;;16.00;99.90;;;;;;5039936;28;20443;-84
2022/05/28 11:36:44;;;;;;;6.50;1.83;;;16.20;99.90;;;;;;5020164;28;20396;-84
2022/05/28 11:39:38;;;;;;;4.50;1.93;;;16.30;99.90;;;;;;5055576;28;20518;-81
2022/05/28 11:42:20;;;;;;;3.55;1.70;;;16.30;99.90;;;;;;5028475;28;20453;-85
2022/05/28 11:44:52;;;;;;;7.53;2.15;;;16.40;99.90;;;;;;5036068;28;20390;-85
2022/05/28 11:47:34;;;;;;;5.05;2.13;;;16.50;99.90;;;;;;5035922;28;20395;-82
2022/05/28 11:53:28;;;;;;;7.68;2.30;;;16.70;99.90;;;;;;5054981;28;20407;-82
2022/05/28 11:56:05;;;;;;;7.70;2.10;;;16.90;99.90;;;;;;5053590;28;20384;-84
2022/05/28 11:58:44;;;;;;;9.23;2.50;;;17.10;99.90;;;;;;5053476;28;20929;-82
2022/05/28 12:01:16;;;;;;;6.55;2.20;;;17.40;99.90;;;;;;5031703;28;20416;-84
2022/05/28 12:03:44;;;;;;;9.68;3.00;;;17.40;99.90;;;;;;5036302;28;20395;-85
2022/05/28 12:06:16;;;;;;;6.80;2.20;;;17.50;99.90;;;;;;5064929;28;20429;-83
2022/05/28 12:09:20;;;;;;;8.23;2.10;;;17.20;99.90;;;;;;5044467;28;20381;-83
2022/05/28 12:12:04;;;;;;;10.45;2.85;;;16.70;99.90;;;;;;5057546;28;20899;-81
2022/05/28 12:14:34;;;;;;;7.93;2.37;;;15.60;99.90;;;;;;5062748;28;20440;-85
2022/05/28 12:17:22;;;;;;;7.63;2.20;;;15.00;99.90;;;;;;5062184;28;20425;-84
2022/05/28 12:19:58;;;;;;;3.28;1.38;;;15.10;99.90;;;;;;5062227;28;20368;-86
2022/05/28 12:22:28;;;;;;;3.42;1.67;;;15.20;99.90;;;;;;5045891;28;21935;-85
2022/05/28 12:25:03;;;;;;;3.47;1.80;;;15.20;99.90;;;;;;5056598;28;20841;-83
2022/05/28 12:27:39;;;;;;;5.10;2.10;;;15.40;99.90;;;;;;5045934;28;20398;-84
2022/05/28 12:30:08;;;;;;;5.72;2.00;;;15.60;99.90;;;;;;5043992;28;20392;-81
2022/05/28 12:32:48;;;;;;;7.45;2.20;;;15.80;99.90;;;;;;5042963;28;20384;-82
2022/05/28 12:35:33;;;;;;;5.97;1.92;;;15.90;99.90;;;;;;5056758;28;20387;-84
2022/05/28 12:38:08;;;;;;;8.53;2.40;;;16.00;99.90;;;;;;5037963;28;20442;-84
2022/05/28 12:40:57;;;;;;;7.45;1.80;;;16.10;99.90;;;;;;5043554;28;20778;-84
2022/05/28 12:43:31;;;;;;;6.00;1.70;;;16.10;99.90;;;;;;5054220;28;20960;-82
2022/05/28 12:46:12;;;;;;;3.80;1.48;;;16.10;99.90;;;;;;5037052;28;20747;-85
2022/05/28 12:48:39;;;;;;;5.80;1.70;;;16.20;99.90;;;;;;5036497;28;20881;-87
2022/05/28 12:51:20;;;;;;;2.55;1.58;;;16.20;99.90;;;;;;5053080;28;20780;-87
2022/05/28 12:53:54;;;;;;;4.05;1.50;;;16.30;99.90;;;;;;5040769;28;20475;-86
2022/05/28 12:56:40;;;;;;;4.88;1.58;;;16.30;99.90;;;;;;5047236;28;20395;-83
2022/05/28 12:59:29;;;;;;;6.05;1.85;;;16.30;99.90;;;;;;5066613;28;20465;-86
2022/05/28 13:01:59;;;;;;;7.30;1.80;;;16.50;99.90;;;;;;5065586;28;20415;-87
2022/05/28 13:04:31;;;;;;;6.07;2.22;;;16.60;99.90;;;;;;5063726;28;20371;-83
2022/05/28 13:06:58;;;;;;;5.38;2.03;;;;;;;;;;5045285;28;20402;-84
2022/05/28 13:09:27;;;;;;;7.22;2.38;;;;;;;;;;5050621;28;20378;-88
2022/05/28 13:11:59;;;;;;;5.22;2.13;;;17.20;99.90;;;;;;5064068;28;20866;-85
2022/05/28 13:15:02;;;;;;;7.57;2.42;;;17.40;99.90;;;;;;5044018;28;20464;-87
2022/05/28 13:17:30;;;;;;;6.68;1.80;;;17.20;99.90;;;;;;5060352;28;20403;-84
2022/05/28 13:20:14;;;;;;;6.70;2.03;;;17.40;99.90;;;;;;5046026;28;20382;-86
2022/05/28 13:23:01;;;;;;;6.22;1.90;;;17.30;99.90;;;;;;5062495;28;20407;-86
2022/05/28 13:25:54;;;;;;;5.80;1.90;;;17.20;99.90;;;;;;5016652;28;20416;-86
2022/05/28 13:28:38;;;;;;;7.78;2.50;;;17.20;99.90;;;;;;5016936;28;20436;-86
2022/05/28 13:31:10;;;;;;;9.05;2.45;;;17.50;99.90;;;;;;5059441;28;20375;-85
2022/05/28 13:33:38;;;;;;;8.27;2.58;;;17.70;99.90;;;;;;5036375;28;20463;-85